Time;durP1;ratioP1;P1;durP2;ratioP2;P2;SDS_P1;SDS_P2;PMS_P1;PMS_P2;Temp;Humidity;BMP_temperature;BMP_pressure;BME280_temperature;BME280_humidity;BME280_pressure;Samples;Min_cycle;Max_cycle;Signal;HPM_P1;HPM_P2
2023/08/27 00:01:30;;;;;;;;;;;;;;;20.30;59.89;100709.81;4196982;28;20480;-69
2023/08/27 00:03:36;;;;;;;;;;;;;;;20.29;60.12;100716.34;4197149;28;19931;-68
2023/08/27 00:05:42;;;;;;;;;;;;;;;20.27;60.03;100732.22;4195938;28;20024;-69
2023/08/27 00:07:44;;;;;;;;;;;;;;;20.25;60.23;100739.84;4194717;28;20015;-69
2023/08/27 00:09:45;;;;;;;;;;;;;;;20.25;60.28;100731.63;4193927;28;20019;-67
2023/08/27 00:11:48;;;;;;;;;;;;;;;20.25;60.40;100731.63;4195955;28;19932;-67
2023/08/27 00:13:50;;;;;;;;;;;;;;;20.25;60.49;100721.50;4196891;28;20015;-69
2023/08/27 00:15:52;;;;;;;;;;;;;;;20.23;60.42;100706.34;4196697;28;20044;-69
2023/08/27 00:17:54;;;;;;;;;;;;;;;20.21;60.47;100692.06;4196743;28;20019;-69
2023/08/27 00:19:58;;;;;;;;;;;;;;;20.19;60.42;100686.81;4195343;28;20374;-70
2023/08/27 00:22:00;;;;;;;;;;;;;;;20.16;60.55;100674.41;4195954;28;20011;-69
2023/08/27 00:24:02;;;;;;;;;;;;;;;20.14;60.59;100687.53;4196649;28;20027;-69
2023/08/27 00:26:04;;;;;;;;;;;;;;;20.12;60.58;100686.94;4196577;28;20058;-69
2023/08/27 00:28:06;;;;;;;;;;;;;;;20.09;60.92;100684.66;4195172;28;20441;-67
2023/08/27 00:30:08;;;;;;;;;;;;;;;20.06;60.99;100684.31;4196952;28;20020;-68
2023/08/27 00:32:10;;;;;;;;;;;;;;;20.04;60.96;100689.22;4191084;28;19928;-68
2023/08/27 00:34:12;;;;;;;;;;;;;;;20.01;61.06;100693.28;4202242;28;20623;-68
2023/08/27 00:36:16;;;;;;;;;;;;;;;19.98;60.91;100694.63;4190053;28;20034;-68
2023/08/27 00:38:18;;;;;;;;;;;;;;;19.95;60.99;100686.88;4195610;28;19956;-69
2023/08/27 00:40:20;;;;;;;;;;;;;;;19.93;61.40;100669.81;4194649;28;20023;-69
2023/08/27 00:42:22;;;;;;;;;;;;;;;19.92;61.38;100670.06;4196429;28;20368;-69
2023/08/27 00:44:24;;;;;;;;;;;;;;;19.91;61.26;100684.84;4195651;28;20027;-69
2023/08/27 00:46:26;;;;;;;;;;;;;;;19.88;61.34;100691.63;4194940;28;19964;-69
2023/08/27 00:48:28;;;;;;;;;;;;;;;19.85;61.39;100705.81;4196242;28;20449;-69
2023/08/27 00:50:31;;;;;;;;;;;;;;;19.82;61.66;100698.06;4211015;28;20027;-69
2023/08/27 00:52:34;;;;;;;;;;;;;;;19.77;61.51;100689.75;4195798;28;19939;-68
2023/08/27 00:54:35;;;;;;;;;;;;;;;19.72;61.87;100689.59;4194852;28;20020;-69
2023/08/27 00:56:37;;;;;;;;;;;;;;;19.69;62.09;100693.66;4194831;28;19963;-68
2023/08/27 00:58:40;;;;;;;;;;;;;;;19.69;62.18;100703.78;4211583;28;20023;-69
2023/08/27 01:00:42;;;;;;;;;;;;;;;19.67;62.31;100693.06;4195092;28;20012;-68
2023/08/27 01:02:46;;;;;;;;;;;;;;;19.66;62.36;100680.41;4195409;28;20011;-68
2023/08/27 01:04:48;;;;;;;;;;;;;;;19.64;62.35;100690.78;4195372;28;20024;-69
2023/08/27 01:06:52;;;;;;;;;;;;;;;19.62;62.04;100679.22;4192698;28;20026;-69
2023/08/27 01:08:57;;;;;;;;;;;;;;;19.59;62.57;100677.81;4194658;28;20478;-69
2023/08/27 01:11:00;;;;;;;;;;;;;;;19.58;62.23;100689.84;4194566;28;20023;-69
2023/08/27 01:13:03;;;;;;;;;;;;;;;19.56;62.53;100675.56;4194964;28;19924;-69
2023/08/27 01:15:05;;;;;;;;;;;;;;;19.55;62.58;100689.47;4194278;28;20007;-69
2023/08/27 01:17:07;;;;;;;;;;;;;;;19.52;62.31;100693.53;4194925;28;20019;-69
2023/08/27 01:19:13;;;;;;;;;;;;;;;19.49;62.65;100685.78;4195033;28;20027;-69
2023/08/27 01:21:19;;;;;;;;;;;;;;;19.47;62.52;100687.06;4195251;28;20019;-69
2023/08/27 01:23:21;;;;;;;;;;;;;;;19.42;62.83;100685.91;4201889;28;20367;-68
2023/08/27 01:25:26;;;;;;;;;;;;;;;19.39;62.81;100683.63;4196268;28;20023;-68
2023/08/27 01:27:28;;;;;;;;;;;;;;;19.37;62.74;100682.19;4195475;28;20023;-69
2023/08/27 01:29:31;;;;;;;;;;;;;;;19.36;63.12;100677.81;4194224;28;20015;-68
2023/08/27 01:31:34;;;;;;;;;;;;;;;19.35;62.96;100682.44;4195023;28;19928;-68
2023/08/27 01:33:36;;;;;;;;;;;;;;;19.35;63.02;100682.44;4189274;28;20435;-68
2023/08/27 01:35:38;;;;;;;;;;;;;;;19.34;63.22;100685.41;4190948;28;20541;-68
2023/08/27 01:37:41;;;;;;;;;;;;;;;19.32;63.32;100695.78;4193904;28;20027;-68
2023/08/27 01:39:43;;;;;;;;;;;;;;;19.31;63.44;100688.63;4191111;28;20011;-69
2023/08/27 01:41:46;;;;;;;;;;;;;;;19.30;63.48;100693.28;4192501;28;20023;-69
2023/08/27 01:43:48;;;;;;;;;;;;;;;19.30;63.63;100711.63;4195254;28;20024;-69
2023/08/27 01:45:50;;;;;;;;;;;;;;;19.29;63.54;100701.72;4191996;28;20020;-68
2023/08/27 01:47:52;;;;;;;;;;;;;;;19.29;63.85;100690.78;4192505;28;20063;-68
2023/08/27 01:49:54;;;;;;;;;;;;;;;19.30;63.84;100696.00;4192458;28;20011;-69
2023/08/27 01:51:56;;;;;;;;;;;;;;;19.32;63.97;100679.34;4193513;28;20028;-68
2023/08/27 01:54:00;;;;;;;;;;;;;;;19.33;63.92;100672.81;4194229;28;19932;-69
2023/08/27 01:56:02;;;;;;;;;;;;;;;19.31;63.85;100667.56;4194275;28;20027;-69
2023/08/27 01:58:04;;;;;;;;;;;;;;;19.33;63.97;100667.34;4194609;28;20513;-68
2023/08/27 02:00:08;;;;;;;;;;;;;;;19.33;63.76;100672.81;4201868;28;20018;-68
2023/08/27 02:02:16;;;;;;;;;;;;;;;19.34;64.09;100672.56;4195503;28;20011;-67
2023/08/27 02:04:18;;;;;;;;;;;;;;;19.34;63.75;100667.09;4195121;28;20051;-68
2023/08/27 02:06:21;;;;;;;;;;;;;;;19.33;63.86;100665.41;4194528;28;20358;-68
2023/08/27 02:08:23;;;;;;;;;;;;;;;19.31;64.17;100659.34;4193202;28;20056;-68
2023/08/27 02:10:27;;;;;;;;;;;;;;;19.32;64.06;100649.22;4193381;28;20043;-67
2023/08/27 02:12:29;;;;;;;;;;;;;;;19.33;64.17;100650.91;4194141;28;20449;-68
2023/08/27 02:14:30;;;;;;;;;;;;;;;19.33;63.88;100662.69;4194516;28;19936;-68
2023/08/27 02:16:34;;;;;;;;;;;;;;;19.31;63.87;100656.63;4193323;28;20458;-68
2023/08/27 02:18:36;;;;;;;;;;;;;;;19.28;64.20;100651.59;4192198;28;20497;-68
2023/08/27 02:20:38;;;;;;;;;;;;;;;19.29;64.26;100653.25;4184810;28;20367;-68
2023/08/27 02:22:41;;;;;;;;;;;;;;;19.30;64.30;100659.59;4194179;28;20022;-68
2023/08/27 02:24:43;;;;;;;;;;;;;;;19.32;64.40;100662.91;4194486;28;20364;-69
2023/08/27 02:26:46;;;;;;;;;;;;;;;19.34;64.39;100642.44;4193458;28;19928;-69
2023/08/27 02:28:47;;;;;;;;;;;;;;;19.34;64.12;100628.75;4193893;28;20015;-70
2023/08/27 02:30:52;;;;;;;;;;;;;;;19.34;64.15;100641.59;4193455;28;20310;-69
2023/08/27 02:32:55;;;;;;;;;;;;;;;19.32;64.22;100660.19;4186206;28;20007;-69
2023/08/27 02:34:57;;;;;;;;;;;;;;;19.31;64.23;100680.41;4194626;28;19928;-69
2023/08/27 02:36:59;;;;;;;;;;;;;;;19.29;64.21;100686.13;4194242;28;20398;-69
2023/08/27 02:39:01;;;;;;;;;;;;;;;19.29;64.43;100680.63;4192064;28;20019;-69
2023/08/27 02:41:03;;;;;;;;;;;;;;;19.28;64.44;100668.03;4192378;28;20016;-69
2023/08/27 02:43:07;;;;;;;;;;;;;;;19.28;64.51;100657.09;4193103;28;19963;-68
2023/08/27 02:45:09;;;;;;;;;;;;;;;19.26;64.43;100653.72;4194400;28;20430;-69
2023/08/27 02:47:11;;;;;;;;;;;;;;;19.24;64.50;100656.72;4209584;28;20058;-69
2023/08/27 02:49:13;;;;;;;;;;;;;;;19.25;64.65;100649.34;4195020;28;20011;-69
2023/08/27 02:51:15;;;;;;;;;;;;;;;19.23;64.60;100651.47;4194388;28;20007;-69
2023/08/27 02:53:17;;;;;;;;;;;;;;;19.19;64.42;100648.38;4210814;28;20065;-69
2023/08/27 02:55:19;;;;;;;;;;;;;;;19.16;64.81;100632.41;4196007;28;19924;-69
2023/08/27 02:57:20;;;;;;;;;;;;;;;19.15;64.75;100627.19;4195601;28;19992;-69
2023/08/27 02:59:24;;;;;;;;;;;;;;;19.14;64.96;100652.88;4205977;28;20364;-69
2023/08/27 03:01:26;;;;;;;;;;;;;;;19.13;64.95;100654.78;4196775;28;20023;-69
2023/08/27 03:03:29;;;;;;;;;;;;;;;19.13;64.81;100648.50;4195508;28;20031;-69
2023/08/27 03:05:31;;;;;;;;;;;;;;;19.09;65.08;100657.19;4197632;28;19925;-69
2023/08/27 03:07:32;;;;;;;;;;;;;;;19.07;64.84;100674.91;4197633;28;20015;-69
2023/08/27 03:09:34;;;;;;;;;;;;;;;19.04;65.05;100683.56;4195792;28;20071;-69
2023/08/27 03:11:36;;;;;;;;;;;;;;;19.02;65.21;100685.72;4196349;28;21275;-69
2023/08/27 03:13:37;;;;;;;;;;;;;;;18.99;65.13;100681.53;4196785;28;20019;-69
2023/08/27 03:15:41;;;;;;;;;;;;;;;18.98;65.16;100674.41;4195603;28;19928;-69
2023/08/27 03:17:43;;;;;;;;;;;;;;;18.97;65.19;100675.47;4211528;28;20386;-69
2023/08/27 03:19:45;;;;;;;;;;;;;;;18.94;65.60;100662.25;4196455;28;20880;-69
2023/08/27 03:21:47;;;;;;;;;;;;;;;18.94;65.29;100662.25;4195546;28;20024;-69
2023/08/27 03:23:49;;;;;;;;;;;;;;;18.93;65.33;100660.59;4195872;28;20023;-69
2023/08/27 03:25:51;;;;;;;;;;;;;;;18.93;65.66;100655.09;4197990;28;20023;-69
2023/08/27 03:27:52;;;;;;;;;;;;;;;18.94;65.70;100669.66;4197244;28;20008;-69
2023/08/27 03:29:55;;;;;;;;;;;;;;;18.94;65.50;100661.44;4196790;28;20491;-69
2023/08/27 03:31:58;;;;;;;;;;;;;;;18.91;65.46;100666.28;4196464;28;20019;-69
2023/08/27 03:34:02;;;;;;;;;;;;;;;18.92;65.44;100667.16;4204610;28;19970;-69
2023/08/27 03:36:04;;;;;;;;;;;;;;;18.89;65.33;100665.69;4197148;28;19964;-69
2023/08/27 03:38:06;;;;;;;;;;;;;;;18.85;65.47;100653.53;4189866;28;20024;-69
2023/08/27 03:40:09;;;;;;;;;;;;;;;18.84;65.78;100645.53;4185313;28;20019;-69
2023/08/27 03:42:11;;;;;;;;;;;;;;;18.82;65.56;100650.41;4193002;28;20019;-69
2023/08/27 03:44:13;;;;;;;;;;;;;;;18.82;65.69;100661.38;4195420;28;20042;-68
2023/08/27 03:46:15;;;;;;;;;;;;;;;18.80;65.77;100658.88;4193935;28;20322;-69
2023/08/27 03:48:18;;;;;;;;;;;;;;;18.79;65.90;100648.16;4196042;28;20372;-68
2023/08/27 03:50:20;;;;;;;;;;;;;;;18.78;65.99;100627.31;4196041;28;20011;-68
2023/08/27 03:52:22;;;;;;;;;;;;;;;18.77;65.95;100628.41;4195839;28;20063;-69
2023/08/27 03:54:26;;;;;;;;;;;;;;;18.77;66.00;100623.75;4195988;28;20024;-69
2023/08/27 03:56:28;;;;;;;;;;;;;;;18.75;65.78;100604.03;4212293;28;20023;-69
2023/08/27 03:58:31;;;;;;;;;;;;;;;18.76;65.97;100602.09;4196408;28;20024;-69
2023/08/27 04:00:33;;;;;;;;;;;;;;;18.73;66.15;100607.00;4197272;28;20457;-69
2023/08/27 04:02:35;;;;;;;;;;;;;;;18.73;66.06;100607.00;4197011;28;20027;-68
2023/08/27 04:04:39;;;;;;;;;;;;;;;18.73;66.27;100601.53;4196454;28;20086;-68
2023/08/27 04:06:40;;;;;;;;;;;;;;;18.74;66.33;100605.06;4195193;28;20027;-68
2023/08/27 04:08:42;;;;;;;;;;;;;;;18.75;66.35;100608.66;4194844;28;20339;-68
2023/08/27 04:10:48;;;;;;;;;;;;;;;18.75;66.26;100611.41;4212155;28;20031;-69
2023/08/27 04:12:50;;;;;;;;;;;;;;;18.73;66.25;100609.72;4195567;28;20015;-68
2023/08/27 04:14:52;;;;;;;;;;;;;;;18.75;66.14;100614.13;4196224;28;20019;-68
2023/08/27 04:16:54;;;;;;;;;;;;;;;18.75;66.22;100619.63;4196342;28;20390;-68
2023/08/27 04:18:56;;;;;;;;;;;;;;;18.77;66.42;100636.63;4195426;28;20023;-69
2023/08/27 04:21:00;;;;;;;;;;;;;;;18.78;66.50;100635.53;4195286;28;20011;-69
2023/08/27 04:23:02;;;;;;;;;;;;;;;18.78;66.20;100632.78;4195658;28;20019;-69
2023/08/27 04:25:05;;;;;;;;;;;;;;;18.75;66.16;100620.44;4196081;28;20359;-69
2023/08/27 04:27:07;;;;;;;;;;;;;;;18.75;66.24;100611.41;4211512;28;20023;-69
2023/08/27 04:29:09;;;;;;;;;;;;;;;18.74;66.33;100616.03;4195691;28;20011;-69
2023/08/27 04:31:12;;;;;;;;;;;;;;;18.73;66.47;100617.94;4194587;28;20031;-69
2023/08/27 04:33:14;;;;;;;;;;;;;;;18.73;66.42;100612.47;4195718;28;20476;-69
2023/08/27 04:35:16;;;;;;;;;;;;;;;18.70;66.30;100607.47;4195677;28;20027;-69
2023/08/27 04:37:19;;;;;;;;;;;;;;;18.73;66.37;100617.09;4195957;28;19936;-68
2023/08/27 04:39:22;;;;;;;;;;;;;;;18.73;66.51;100625.31;4192485;28;20012;-69
2023/08/27 04:41:26;;;;;;;;;;;;;;;18.73;66.65;100626.13;4210479;28;20035;-69
2023/08/27 04:43:28;;;;;;;;;;;;;;;18.74;66.52;100629.69;4195343;28;20051;-68
2023/08/27 04:45:30;;;;;;;;;;;;;;;18.73;66.73;100631.63;4194155;28;20011;-69
2023/08/27 04:47:32;;;;;;;;;;;;;;;18.76;66.75;100632.19;4195947;28;20016;-69
2023/08/27 04:49:36;;;;;;;;;;;;;;;18.76;66.83;100633.06;4195393;28;20039;-68
2023/08/27 04:51:40;;;;;;;;;;;;;;;18.75;66.82;100636.84;4195786;28;20022;-69
2023/08/27 04:53:44;;;;;;;;;;;;;;;18.75;66.77;100657.91;4195202;28;19963;-68
2023/08/27 04:55:46;;;;;;;;;;;;;;;18.73;66.84;100650.75;4195891;28;20015;-69
2023/08/27 04:57:48;;;;;;;;;;;;;;;18.75;66.91;100641.50;4194523;28;19924;-69
2023/08/27 04:59:50;;;;;;;;;;;;;;;18.75;67.00;100636.03;4187443;28;20036;-68
2023/08/27 05:01:54;;;;;;;;;;;;;;;18.75;66.85;100641.50;4194819;28;20019;-68
2023/08/27 05:03:57;;;;;;;;;;;;;;;18.74;66.72;100629.69;4210216;28;20434;-68
2023/08/27 05:06:00;;;;;;;;;;;;;;;18.74;66.90;100632.44;4194978;28;20359;-69
2023/08/27 05:08:02;;;;;;;;;;;;;;;18.73;66.87;100628.88;4187317;28;20011;-69
2023/08/27 05:10:07;;;;;;;;;;;;;;;18.75;66.82;100639.59;4194067;28;20099;-69
2023/08/27 05:12:09;;;;;;;;;;;;;;;18.78;66.85;100633.66;4194439;28;20012;-69
2023/08/27 05:14:12;;;;;;;;;;;;;;;18.78;67.00;100619.13;4195132;28;20019;-69
2023/08/27 05:16:14;;;;;;;;;;;;;;;18.78;66.98;100619.13;4195030;28;20446;-69
2023/08/27 05:18:20;;;;;;;;;;;;;;;18.77;66.97;100620.19;4193761;28;19928;-69
2023/08/27 05:20:23;;;;;;;;;;;;;;;18.79;67.13;100624.34;4194757;28;20018;-69
2023/08/27 05:22:25;;;;;;;;;;;;;;;18.81;67.12;100619.50;4195126;28;20365;-69
2023/08/27 05:24:28;;;;;;;;;;;;;;;18.81;67.26;100619.50;4194651;28;20018;-68
2023/08/27 05:26:31;;;;;;;;;;;;;;;18.84;67.06;100620.91;4194592;28;20011;-69
2023/08/27 05:28:33;;;;;;;;;;;;;;;18.86;67.08;100621.56;4187745;28;20024;-68
2023/08/27 05:30:35;;;;;;;;;;;;;;;18.88;67.21;100617.50;4194312;28;20023;-69
2023/08/27 05:32:36;;;;;;;;;;;;;;;18.90;66.99;100611.78;4193504;28;20878;-69
2023/08/27 05:34:38;;;;;;;;;;;;;;;18.94;66.95;100615.75;4193197;28;19924;-69
2023/08/27 05:36:42;;;;;;;;;;;;;;;18.97;66.67;100639.06;4194605;28;20055;-69
2023/08/27 05:38:44;;;;;;;;;;;;;;;18.99;66.70;100634.19;4192980;28;20565;-69
2023/08/27 05:40:46;;;;;;;;;;;;;;;19.00;66.79;100642.16;4192191;28;20019;-69
2023/08/27 05:42:49;;;;;;;;;;;;;;;19.01;66.54;100635.63;4194452;28;20348;-69
2023/08/27 05:44:51;;;;;;;;;;;;;;;19.03;66.64;100632.66;4193439;28;20015;-69
2023/08/27 05:46:53;;;;;;;;;;;;;;;19.04;66.85;100629.69;4195085;28;20355;-69
2023/08/27 05:48:56;;;;;;;;;;;;;;;19.07;66.64;100634.69;4211222;28;20083;-69
2023/08/27 05:50:59;;;;;;;;;;;;;;;19.08;66.69;100619.91;4207767;28;20012;-69
2023/08/27 05:53:01;;;;;;;;;;;;;;;19.13;66.63;100621.13;4192217;28;20019;-69
2023/08/27 05:55:04;;;;;;;;;;;;;;;19.14;66.55;100623.63;4191620;28;20107;-69
2023/08/27 05:57:06;;;;;;;;;;;;;;;19.17;66.60;100619.56;4194452;28;20019;-69
2023/08/27 05:59:13;;;;;;;;;;;;;;;19.19;66.63;100612.78;4193958;28;19929;-69
2023/08/27 06:01:15;;;;;;;;;;;;;;;19.22;66.46;100616.97;4185491;28;20020;-69
2023/08/27 06:03:18;;;;;;;;;;;;;;;19.24;66.52;100609.34;4194169;28;20030;-69
2023/08/27 06:05:21;;;;;;;;;;;;;;;19.26;66.38;100607.19;4193970;28;20019;-69
2023/08/27 06:07:23;;;;;;;;;;;;;;;19.29;66.25;100608.63;4193226;28;20015;-69
2023/08/27 06:09:25;;;;;;;;;;;;;;;19.31;66.39;100621.03;4191364;28;20026;-69
2023/08/27 06:11:27;;;;;;;;;;;;;;;19.33;66.47;100620.78;4190584;28;20453;-69
2023/08/27 06:13:29;;;;;;;;;;;;;;;19.35;66.09;100624.94;4192502;28;20020;-69
2023/08/27 06:15:34;;;;;;;;;;;;;;;19.38;66.26;100604.47;4189049;28;20412;-69
2023/08/27 06:17:37;;;;;;;;;;;;;;;19.40;66.10;100603.16;4193147;28;20513;-69
2023/08/27 06:19:39;;;;;;;;;;;;;;;19.42;66.26;100602.91;4192217;28;19928;-69
2023/08/27 06:21:41;;;;;;;;;;;;;;;19.43;66.05;100608.13;4193383;28;20024;-69
2023/08/27 06:23:44;;;;;;;;;;;;;;;19.48;65.99;100620.28;4193989;28;20071;-69
2023/08/27 06:25:46;;;;;;;;;;;;;;;19.49;65.86;100625.53;4193202;28;20016;-69
2023/08/27 06:27:48;;;;;;;;;;;;;;;19.52;65.73;100632.44;4191579;28;20020;-69
2023/08/27 06:29:50;;;;;;;;;;;;;;;19.54;65.75;100624.81;4194992;28;20040;-69
2023/08/27 06:31:54;;;;;;;;;;;;;;;19.57;65.52;100621.59;4213017;28;20018;-70
2023/08/27 06:34:04;;;;;;;;;;;;;;;19.58;65.73;100610.38;4211985;28;20396;-69
2023/08/27 06:36:07;;;;;;;;;;;;;;;19.59;65.68;100612.06;4194682;28;20015;-68
2023/08/27 06:38:09;;;;;;;;;;;;;;;19.61;65.71;100609.09;4195461;28;20019;-69
2023/08/27 06:40:15;;;;;;;;;;;;;;;19.62;65.56;100602.53;4195198;28;19970;-69
2023/08/27 06:42:17;;;;;;;;;;;;;;;19.64;65.70;100605.88;4188334;28;20019;-69
2023/08/27 06:44:19;;;;;;;;;;;;;;;19.66;65.45;100614.66;4195640;28;20438;-69
2023/08/27 06:46:25;;;;;;;;;;;;;;;19.68;65.38;100626.22;4191971;28;20024;-69
2023/08/27 06:48:33;;;;;;;;;;;;;;;19.69;65.36;100622.41;4210315;28;20038;-67
2023/08/27 06:50:34;;;;;;;;;;;;;;;19.71;65.34;100624.91;4210048;28;20011;-69
2023/08/27 06:52:36;;;;;;;;;;;;;;;19.72;65.04;100630.16;4186276;28;19928;-68
2023/08/27 06:54:39;;;;;;;;;;;;;;;19.74;64.92;100628.00;4195535;28;19967;-67
2023/08/27 06:56:41;;;;;;;;;;;;;;;19.75;65.11;100624.19;4196120;28;20007;-67
2023/08/27 06:58:43;;;;;;;;;;;;;;;19.77;65.03;100621.25;4196422;28;20031;-67
2023/08/27 07:00:46;;;;;;;;;;;;;;;19.78;64.85;100626.47;4193701;28;20027;-68
2023/08/27 07:02:49;;;;;;;;;;;;;;;19.80;64.85;100624.31;4197367;28;20016;-68
2023/08/27 07:04:53;;;;;;;;;;;;;;;19.82;64.96;100626.81;4196342;28;20032;-67
2023/08/27 07:06:54;;;;;;;;;;;;;;;19.85;64.75;100631.81;4212965;28;20027;-69
2023/08/27 07:08:57;;;;;;;;;;;;;;;19.87;64.59;100635.16;4195789;28;20027;-69
2023/08/27 07:10:59;;;;;;;;;;;;;;;19.88;64.53;100625.84;4187134;28;20024;-68
2023/08/27 07:13:01;;;;;;;;;;;;;;;19.91;64.29;100628.13;4194283;28;20023;-69
2023/08/27 07:15:02;;;;;;;;;;;;;;;19.93;64.35;100625.13;4195012;28;20027;-68
2023/08/27 07:17:05;;;;;;;;;;;;;;;19.93;64.33;100636.09;4195045;28;20019;-68
2023/08/27 07:19:07;;;;;;;;;;;;;;;19.95;64.17;100644.91;4195730;28;20472;-67
2023/08/27 07:21:11;;;;;;;;;;;;;;;19.96;64.04;100654.81;4194521;28;20421;-67
2023/08/27 07:23:13;;;;;;;;;;;;;;;19.98;63.85;100658.97;4187570;28;20010;-69
2023/08/27 07:25:16;;;;;;;;;;;;;;;19.99;63.74;100657.88;4205015;28;20537;-69
2023/08/27 07:27:18;;;;;;;;;;;;;;;20.03;63.61;100655.50;4195343;28;20060;-68
2023/08/27 07:29:20;;;;;;;;;;;;;;;20.06;63.53;100637.72;4194661;28;20032;-68
2023/08/27 07:31:22;;;;;;;;;;;;;;;20.08;63.31;100627.38;4195549;28;20576;-69
2023/08/27 07:33:28;;;;;;;;;;;;;;;20.09;63.37;100639.97;4190518;28;20390;-69
2023/08/27 07:35:31;;;;;;;;;;;;;;;20.10;63.40;100645.22;4195269;28;20027;-68
2023/08/27 07:37:34;;;;;;;;;;;;;;;20.12;63.42;100643.06;4196871;28;20023;-68
2023/08/27 07:39:38;;;;;;;;;;;;;;;20.14;63.00;100632.72;4188812;28;20015;-68
2023/08/27 07:41:40;;;;;;;;;;;;;;;20.17;63.01;100623.16;4209999;28;20239;-67
2023/08/27 07:43:41;;;;;;;;;;;;;;;20.20;62.72;100624.56;4195349;28;20027;-70
2023/08/27 07:45:44;;;;;;;;;;;;;;;20.22;62.81;100614.19;4194844;28;20577;-69
2023/08/27 07:47:47;;;;;;;;;;;;;;;20.23;62.67;100608.47;4192739;28;20018;-68
2023/08/27 07:49:49;;;;;;;;;;;;;;;20.27;62.62;100619.78;4191512;28;20015;-68
2023/08/27 07:51:53;;;;;;;;;;;;;;;20.27;62.55;100620.63;4195373;28;20462;-68
2023/08/27 07:53:57;;;;;;;;;;;;;;;20.29;62.41;100623.09;4191674;28;20011;-68
2023/08/27 07:55:59;;;;;;;;;;;;;;;20.31;62.20;100624.53;4192476;28;20018;-68
2023/08/27 07:58:01;;;;;;;;;;;;;;;20.34;62.00;100604.00;4194784;28;20024;-68
2023/08/27 08:00:04;;;;;;;;;;;;;;;20.37;61.90;100595.28;4194246;28;20020;-70
2023/08/27 08:02:15;;;;;;;;;;;;;;;20.39;62.00;100595.03;4195740;28;19974;-68
2023/08/27 08:04:18;;;;;;;;;;;;;;;20.43;61.32;100599.78;4195824;28;20027;-67
2023/08/27 08:06:19;;;;;;;;;;;;;;;20.45;60.77;100605.03;4192967;28;20135;-68
2023/08/27 08:08:21;;;;;;;;;;;;;;;20.46;60.86;100595.72;4194269;28;19936;-67
2023/08/27 08:10:24;;;;;;;;;;;;;;;20.49;61.26;100611.69;4192736;28;20019;-68
2023/08/27 08:12:26;;;;;;;;;;;;;;;20.51;61.23;100604.88;4196102;28;20008;-67
2023/08/27 08:14:29;;;;;;;;;;;;;;;20.52;61.08;100598.31;4196948;28;20014;-67
2023/08/27 08:16:31;;;;;;;;;;;;;;;20.55;60.75;100597.00;4196631;28;20023;-67
2023/08/27 08:18:33;;;;;;;;;;;;;;;20.57;60.83;100592.09;4196680;28;20035;-67
2023/08/27 08:20:36;;;;;;;;;;;;;;;20.59;60.53;100595.41;4196688;28;20023;-67
2023/08/27 08:22:38;;;;;;;;;;;;;;;20.61;60.47;100585.03;4195890;28;20426;-67
2023/08/27 08:24:40;;;;;;;;;;;;;;;20.63;60.30;100585.63;4195900;28;20050;-67
2023/08/27 08:26:43;;;;;;;;;;;;;;;20.64;60.31;100579.09;4194629;28;20025;-67
2023/08/27 08:28:45;;;;;;;;;;;;;;;20.64;60.07;100573.59;4189213;28;20031;-67
2023/08/27 08:30:48;;;;;;;;;;;;;;;20.66;60.14;100568.69;4185317;28;20024;-67
2023/08/27 08:32:51;;;;;;;;;;;;;;;20.67;60.04;100581.34;4192340;28;20351;-69
2023/08/27 08:34:54;;;;;;;;;;;;;;;20.69;59.80;100589.31;4192739;28;20008;-68
2023/08/27 08:36:55;;;;;;;;;;;;;;;20.70;59.92;100600.06;4194340;28;20031;-68
2023/08/27 08:38:58;;;;;;;;;;;;;;;20.71;59.77;100611.84;4193091;28;20892;-67
2023/08/27 08:41:00;;;;;;;;;;;;;;;20.71;59.71;100598.13;4193929;28;20015;-67
2023/08/27 08:43:04;;;;;;;;;;;;;;;20.72;59.86;100577.84;4192469;28;19935;-67
2023/08/27 08:45:09;;;;;;;;;;;;;;;20.73;59.87;100573.19;4192302;28;20023;-67
2023/08/27 08:47:11;;;;;;;;;;;;;;;20.75;59.66;100568.25;4189531;28;20457;-66
2023/08/27 08:49:15;;;;;;;;;;;;;;;20.74;59.57;100572.13;4190426;28;20026;-66
2023/08/27 08:51:19;;;;;;;;;;;;;;;20.75;59.47;100558.09;4190359;28;20023;-66
2023/08/27 08:53:22;;;;;;;;;;;;;;;20.76;59.25;100561.72;4190672;28;20019;-67
2023/08/27 08:55:24;;;;;;;;;;;;;;;20.76;59.28;100559.78;4188029;28;20498;-67
2023/08/27 08:57:26;;;;;;;;;;;;;;;20.78;59.39;100570.50;4189803;28;19940;-68
2023/08/27 08:59:30;;;;;;;;;;;;;;;20.79;58.71;100573.00;4189805;28;20012;-68
2023/08/27 09:01:32;;;;;;;;;;;;;;;20.80;59.00;100569.19;4190462;28;20023;-68
2023/08/27 09:03:33;;;;;;;;;;;;;;;20.80;58.82;100562.84;4193671;28;20650;-68
2023/08/27 09:05:35;;;;;;;;;;;;;;;20.81;58.50;100557.13;4192750;28;20020;-68
2023/08/27 09:07:38;;;;;;;;;;;;;;;20.82;58.56;100552.47;4190303;28;20011;-68
2023/08/27 09:09:40;;;;;;;;;;;;;;;20.83;58.29;100556.88;4189243;28;20027;-68
2023/08/27 09:11:42;;;;;;;;;;;;;;;20.86;58.61;100548.13;4188721;28;20019;-68
2023/08/27 09:13:45;;;;;;;;;;;;;;;20.87;58.63;100538.81;4193633;28;20023;-68
2023/08/27 09:15:48;;;;;;;;;;;;;;;20.88;58.77;100555.03;4192707;28;20011;-68
2023/08/27 09:17:50;;;;;;;;;;;;;;;20.90;57.95;100557.53;4192684;28;20040;-67
2023/08/27 09:19:52;;;;;;;;;;;;;;;20.92;57.89;100560.03;4193311;28;20098;-67
2023/08/27 09:21:54;;;;;;;;;;;;;;;20.94;57.96;100561.47;4190052;28;20004;-67
2023/08/27 09:23:56;;;;;;;;;;;;;;;20.96;57.90;100561.22;4208908;28;20356;-67
2023/08/27 09:25:59;;;;;;;;;;;;;;;20.99;57.31;100568.94;4194482;28;20020;-67
2023/08/27 09:28:02;;;;;;;;;;;;;;;21.01;57.91;100569.50;4191169;28;20023;-68
2023/08/27 09:30:04;;;;;;;;;;;;;;;21.02;57.99;100569.25;4192555;28;20035;-68
2023/08/27 09:32:07;;;;;;;;;;;;;;;21.02;57.84;100572.00;4194416;28;20889;-67
2023/08/27 09:34:11;;;;;;;;;;;;;;;21.04;57.16;100556.09;4193953;28;20027;-67
2023/08/27 09:36:13;;;;;;;;;;;;;;;21.06;57.80;100544.88;4191274;28;20446;-68
2023/08/27 09:38:16;;;;;;;;;;;;;;;21.06;56.69;100540.22;4192867;28;19928;-67
2023/08/27 09:40:18;;;;;;;;;;;;;;;21.09;56.66;100529.81;4191458;28;20027;-67
2023/08/27 09:42:19;;;;;;;;;;;;;;;21.09;56.53;100527.91;4192312;28;20371;-68
2023/08/27 09:44:23;;;;;;;;;;;;;;;21.09;56.57;100522.41;4190450;28;20391;-67
2023/08/27 09:46:25;;;;;;;;;;;;;;;21.07;56.53;100535.56;4191729;28;20027;-68
2023/08/27 09:48:28;;;;;;;;;;;;;;;21.08;56.95;100542.69;4191908;28;20019;-67
2023/08/27 09:50:31;;;;;;;;;;;;;;;21.08;56.96;100542.69;4192149;28;20357;-68
2023/08/27 09:52:33;;;;;;;;;;;;;;;21.08;56.79;100539.94;4191442;28;20442;-67
2023/08/27 09:54:37;;;;;;;;;;;;;;;21.06;56.56;100537.50;4192748;28;20031;-68
2023/08/27 09:56:39;;;;;;;;;;;;;;;21.06;56.66;100540.22;4194326;28;20023;-67
2023/08/27 09:58:41;;;;;;;;;;;;;;;21.06;56.83;100553.09;4194398;28;20045;-67
2023/08/27 10:00:43;;;;;;;;;;;;;;;21.06;56.88;100550.38;4192843;28;20505;-68
2023/08/27 10:02:47;;;;;;;;;;;;;;;21.05;56.84;100566.03;4191654;28;20474;-68
2023/08/27 10:04:50;;;;;;;;;;;;;;;21.06;56.74;100561.34;4190384;28;20479;-68
2023/08/27 10:06:53;;;;;;;;;;;;;;;21.06;57.17;100564.09;4191264;28;20049;-68
2023/08/27 10:08:54;;;;;;;;;;;;;;;21.06;57.25;100556.72;4186804;28;20371;-67
2023/08/27 10:11:05;;;;;;;;;;;;;;;21.07;57.27;100549.28;4192237;28;20036;-68
2023/08/27 10:13:07;;;;;;;;;;;;;;;21.09;57.71;100546.28;4191361;28;20032;-68
2023/08/27 10:15:09;;;;;;;;;;;;;;;21.10;57.30;100535.06;4190430;28;20019;-68
2023/08/27 10:17:12;;;;;;;;;;;;;;;21.12;57.25;100530.13;4192556;28;20019;-68
2023/08/27 10:19:14;;;;;;;;;;;;;;;21.14;57.44;100524.41;4193472;28;19929;-68
2023/08/27 10:21:17;;;;;;;;;;;;;;;21.14;57.37;100525.22;4194039;28;20023;-67
2023/08/27 10:23:18;;;;;;;;;;;;;;;21.16;57.38;100523.06;4194984;28;20015;-68
2023/08/27 10:25:20;;;;;;;;;;;;;;;21.17;57.11;100527.47;4187880;28;20310;-68
2023/08/27 10:27:21;;;;;;;;;;;;;;;21.19;57.19;100524.47;4193332;28;20011;-68
2023/08/27 10:29:24;;;;;;;;;;;;;;;21.21;57.13;100525.06;4192441;28;20035;-67